This is the latest recevied weather packets stored in our database for station/object OE6JVE-13. If no packets are shown the sender has not sent any weather packets the latest 10 day(s).
| Time | Temp. | Humidity | Pressure | Rain* | Wind** | Luminosity | Snow |
|---|---|---|---|---|---|---|---|
| 1777624271 | 13.89° C | 35% | 1022.7 hPa | 0 mm | - | - | - |
| 1777623677 | 13.33° C | 34% | 1022.7 hPa | 0 mm | - | - | - |
| 1777623015 | 12.78° C | 35% | 1022.8 hPa | 0 mm | - | - | - |
| 1777622421 | 12.78° C | 34% | 1022.8 hPa | 0 mm | - | - | - |
| 1777621828 | 12.22° C | 34% | 1022.8 hPa | 0 mm | - | - | - |
| 1777621234 | 12.22° C | 38% | 1022.8 hPa | 0 mm | - | - | - |
| 1777620640 | 11.11° C | 41% | 1022.8 hPa | 0 mm | - | - | - |
| 1777620046 | 10.56° C | 43% | 1022.9 hPa | 0 mm | - | - | - |
| 1777619453 | 10.56° C | 45% | 1022.8 hPa | 0 mm | - | - | - |
| 1777618859 | 10° C | 48% | 1022.8 hPa | 0 mm | - | - | - |
| 1777618263 | 8.89° C | 54% | 1022.8 hPa | 0 mm | - | - | - |
| 1777617670 | 6.67° C | 70% | 1022.7 hPa | 0 mm | - | - | - |
| 1777617076 | 5° C | 76% | 1022.7 hPa | 0 mm | - | - | - |
| 1777616416 | 4.44° C | 80% | 1022.6 hPa | 0 mm | - | - | - |
| 1777615823 | 3.33° C | 81% | 1022.5 hPa | 0 mm | - | - | - |
| 1777615229 | 2.22° C | 81% | 1022.5 hPa | 0 mm | - | - | - |
| 1777614635 | 1.67° C | 81% | 1022.5 hPa | 0 mm | - | - | - |
| 1777614036 | 1.11° C | 81% | 1022.2 hPa | 0 mm | - | - | - |
| 1777496480 | 3.33° C | 83% | 1019.4 hPa | 0 mm | - | - | - |
| 1777495822 | 3.89° C | 83% | 1019.3 hPa | 0 mm | - | - | - |
| 1777495230 | 3.89° C | 83% | 1019 hPa | 0 mm | - | - | - |
| 1777494638 | 3.89° C | 83% | 1018.7 hPa | 0 mm | - | - | - |
| 1777494046 | 3.89° C | 82% | 1018.4 hPa | 0 mm | - | - | - |
| 1777493454 | 3.89° C | 82% | 1017.8 hPa | 0 mm | - | - | - |
| 1777492862 | 3.89° C | 81% | 1017.6 hPa | 0 mm | - | - | - |
* Rain latest hour (hover to see other rain measurements)
** Current wind speed in m/s (hover to see current wind gust speed)